DAL2282 KATL-MMMX
Flight info
| Callsign | DAL2282 |
|---|---|
| Flight time | N/A |
| Altitude | 34000 |
| Route | POUNC2 GRGIA DCT ARNNY DCT GCV DCT TBD M345 AXEXO UM345 PAZ UT154 ENAGA ENAGA3A |
| Aircraft | B753/M-SDE3FGHIM3RWXY/LB1 |
Departure
| Time | 2026-05-08 02:49 |
|---|---|
| Airport | Hartsfield Jackson Atlanta International Airport (KATL) |
Arrival
| Time | N/A |
|---|---|
| Airport | Mexico City Benito Juárez International Airport (MMMX) |
| Time | Latitude | Longitude | Altitude | Speed | Heading |
|---|---|---|---|---|---|
| 2026-05-08 02:14 | 33.63896 | -84.43973 | 1019 ft | 0 kts | 90° |
| 2026-05-08 02:27 | 33.63896 | -84.43989 | 1019 ft | 2 kts | 90° |
| 2026-05-08 02:27 | 33.63896 | -84.44007 | 1019 ft | 2 kts | 91° |
| 2026-05-08 02:28 | 33.63896 | -84.44025 | 1020 ft | 2 kts | 90° |
| 2026-05-08 02:28 | 33.63898 | -84.44042 | 1020 ft | 2 kts | 131° |
| 2026-05-08 02:28 | 33.63910 | -84.44051 | 1020 ft | 1 kts | 173° |
| 2026-05-08 02:28 | 33.63916 | -84.44051 | 1020 ft | 1 kts | 182° |
| 2026-05-08 02:29 | 33.63919 | -84.44051 | 1020 ft | 0 kts | 180° |
| 2026-05-08 02:31 | 33.63916 | -84.44051 | 1021 ft | 2 kts | 190° |
| 2026-05-08 02:31 | 33.63922 | -84.44098 | 1021 ft | 13 kts | 322° |
| 2026-05-08 02:32 | 33.64005 | -84.44114 | 1022 ft | 10 kts | 358° |
| 2026-05-08 02:32 | 33.64068 | -84.44115 | 1022 ft | 7 kts | 2° |
| 2026-05-08 02:32 | 33.64120 | -84.44112 | 1022 ft | 7 kts | 2° |
| 2026-05-08 02:32 | 33.64168 | -84.44112 | 1022 ft | 6 kts | 360° |
| 2026-05-08 02:33 | 33.64228 | -84.44113 | 1023 ft | 10 kts | 359° |
| 2026-05-08 02:33 | 33.64315 | -84.44115 | 1025 ft | 14 kts | 359° |
| 2026-05-08 02:33 | 33.64430 | -84.44112 | 1025 ft | 19 kts | 2° |
| 2026-05-08 02:33 | 33.64505 | -84.43990 | 1023 ft | 23 kts | 85° |
| 2026-05-08 02:34 | 33.64526 | -84.43810 | 1019 ft | 20 kts | 81° |
| 2026-05-08 02:34 | 33.64542 | -84.43634 | 1016 ft | 21 kts | 90° |
| 2026-05-08 02:34 | 33.64542 | -84.43457 | 1012 ft | 21 kts | 91° |
| 2026-05-08 02:34 | 33.64540 | -84.43275 | 1009 ft | 22 kts | 89° |
| 2026-05-08 02:35 | 33.64543 | -84.43090 | 1007 ft | 21 kts | 91° |
| 2026-05-08 02:35 | 33.64540 | -84.42912 | 1004 ft | 21 kts | 90° |
| 2026-05-08 02:35 | 33.64542 | -84.42738 | 1001 ft | 19 kts | 90° |
| 2026-05-08 02:35 | 33.64542 | -84.42567 | 996 ft | 21 kts | 90° |
| 2026-05-08 02:36 | 33.64541 | -84.42379 | 988 ft | 23 kts | 91° |
| 2026-05-08 02:36 | 33.64540 | -84.42225 | 983 ft | 19 kts | 90° |
| 2026-05-08 02:36 | 33.64541 | -84.42053 | 976 ft | 21 kts | 90° |
| 2026-05-08 02:36 | 33.64542 | -84.41869 | 973 ft | 22 kts | 89° |
| 2026-05-08 02:37 | 33.64543 | -84.41688 | 972 ft | 21 kts | 92° |
| 2026-05-08 02:37 | 33.64542 | -84.41516 | 972 ft | 19 kts | 89° |
| 2026-05-08 02:37 | 33.64543 | -84.41370 | 975 ft | 16 kts | 91° |
| 2026-05-08 02:37 | 33.64541 | -84.41242 | 976 ft | 14 kts | 90° |
| 2026-05-08 02:38 | 33.64542 | -84.41129 | 978 ft | 12 kts | 89° |
| 2026-05-08 02:38 | 33.64543 | -84.41028 | 979 ft | 11 kts | 89° |
| 2026-05-08 02:38 | 33.64543 | -84.40929 | 978 ft | 12 kts | 90° |
| 2026-05-08 02:38 | 33.64550 | -84.40830 | 977 ft | 10 kts | 69° |
| 2026-05-08 02:39 | 33.64573 | -84.40760 | 979 ft | 7 kts | 68° |
| 2026-05-08 02:39 | 33.64578 | -84.40710 | 978 ft | 6 kts | 92° |
| 2026-05-08 02:39 | 33.64574 | -84.40653 | 977 ft | 7 kts | 95° |
| 2026-05-08 02:39 | 33.64578 | -84.40593 | 976 ft | 6 kts | 60° |
| 2026-05-08 02:40 | 33.64607 | -84.40570 | 977 ft | 4 kts | 13° |
| 2026-05-08 02:40 | 33.64645 | -84.40569 | 978 ft | 5 kts | 357° |
| 2026-05-08 02:40 | 33.64672 | -84.40579 | 979 ft | 2 kts | 315° |
| 2026-05-08 02:40 | 33.64678 | -84.40592 | 980 ft | 3 kts | 288° |
| 2026-05-08 02:41 | 33.64680 | -84.40609 | 980 ft | 0 kts | 270° |
| 2026-05-08 02:41 | 33.64680 | -84.40613 | 980 ft | 0 kts | 270° |
| 2026-05-08 02:41 | 33.64680 | -84.40616 | 980 ft | 4 kts | 270° |
| 2026-05-08 02:41 | 33.64679 | -84.40852 | 984 ft | 53 kts | 270° |
| 2026-05-08 02:42 | 33.64680 | -84.41511 | 978 ft | 103 kts | 270° |
| 2026-05-08 02:42 | 33.64680 | -84.42323 | 987 ft | 40 kts | 271° |
| 2026-05-08 02:42 | 33.64679 | -84.42403 | 989 ft | 6 kts | 263° |
| 2026-05-08 02:42 | 33.64673 | -84.42448 | 990 ft | 4 kts | 257° |
| 2026-05-08 02:43 | 33.64661 | -84.42486 | 990 ft | 6 kts | 247° |
| 2026-05-08 02:43 | 33.64638 | -84.42539 | 993 ft | 6 kts | 241° |
| 2026-05-08 02:43 | 33.64621 | -84.42574 | 994 ft | 3 kts | 240° |
| 2026-05-08 02:43 | 33.64610 | -84.42593 | 995 ft | 1 kts | 230° |
| 2026-05-08 02:44 | 33.64587 | -84.42613 | 996 ft | 7 kts | 200° |
| 2026-05-08 02:44 | 33.64549 | -84.42593 | 996 ft | 6 kts | 123° |
| 2026-05-08 02:44 | 33.64542 | -84.42542 | 995 ft | 7 kts | 90° |
| 2026-05-08 02:44 | 33.64543 | -84.42469 | 992 ft | 10 kts | 89° |
| 2026-05-08 02:45 | 33.64544 | -84.42364 | 988 ft | 14 kts | 89° |
| 2026-05-08 02:45 | 33.64543 | -84.42241 | 984 ft | 16 kts | 91° |
| 2026-05-08 02:45 | 33.64542 | -84.42096 | 978 ft | 18 kts | 91° |
| 2026-05-08 02:45 | 33.64542 | -84.41990 | 975 ft | 19 kts | 89° |
| 2026-05-08 02:46 | 33.64540 | -84.41456 | 974 ft | 21 kts | 90° |
| 2026-05-08 02:46 | 33.64541 | -84.41275 | 976 ft | 23 kts | 89° |
| 2026-05-08 02:47 | 33.64545 | -84.41075 | 979 ft | 24 kts | 89° |
| 2026-05-08 02:47 | 33.64545 | -84.40855 | 977 ft | 28 kts | 85° |
| 2026-05-08 02:47 | 33.64570 | -84.40635 | 977 ft | 26 kts | 84° |
| 2026-05-08 02:47 | 33.64671 | -84.40598 | 980 ft | 16 kts | 304° |
| 2026-05-08 02:48 | 33.64679 | -84.40643 | 981 ft | 0 kts | 271° |
| 2026-05-08 02:48 | 33.64680 | -84.40720 | 982 ft | 30 kts | 270° |
| 2026-05-08 02:48 | 33.64682 | -84.41170 | 984 ft | 79 kts | 271° |
| 2026-05-08 02:48 | 33.64681 | -84.42032 | 979 ft | 126 kts | 270° |
| 2026-05-08 02:49 | 33.64678 | -84.43244 | 1010 ft | 164 kts | 270° |
| 2026-05-08 02:49 | 33.64669 | -84.44661 | 1306 ft | 176 kts | 270° |
| 2026-05-08 02:49 | 33.64685 | -84.46214 | 1497 ft | 203 kts | 278° |
| 2026-05-08 02:49 | 33.64922 | -84.47968 | 1911 ft | 219 kts | 284° |
| 2026-05-08 02:50 | 33.65306 | -84.49744 | 2641 ft | 229 kts | 287° |
| 2026-05-08 02:50 | 33.65709 | -84.51650 | 3283 ft | 245 kts | 287° |
| 2026-05-08 02:50 | 33.66112 | -84.53678 | 4140 ft | 252 kts | 285° |
| 2026-05-08 02:50 | 33.66495 | -84.55666 | 5230 ft | 248 kts | 283° |
| 2026-05-08 02:51 | 33.66873 | -84.57652 | 6272 ft | 246 kts | 282° |
| 2026-05-08 02:51 | 33.67218 | -84.59584 | 7276 ft | 243 kts | 281° |
| 2026-05-08 02:51 | 33.67497 | -84.61223 | 7974 ft | 246 kts | 281° |
| 2026-05-08 02:51 | 33.67842 | -84.63242 | 8883 ft | 247 kts | 281° |
| 2026-05-08 02:52 | 33.68201 | -84.65350 | 9888 ft | 245 kts | 280° |
| 2026-05-08 02:52 | 33.68530 | -84.67295 | 10540 ft | 253 kts | 279° |
| 2026-05-08 02:52 | 33.68887 | -84.69411 | 10860 ft | 274 kts | 280° |
| 2026-05-08 02:52 | 33.69270 | -84.71671 | 11228 ft | 292 kts | 280° |
| 2026-05-08 02:53 | 33.69564 | -84.74121 | 11523 ft | 311 kts | 270° |
| 2026-05-08 02:53 | 33.69231 | -84.76771 | 11771 ft | 333 kts | 254° |
| 2026-05-08 02:53 | 33.68185 | -84.79188 | 12461 ft | 343 kts | 238° |
| 2026-05-08 02:53 | 33.66697 | -84.81461 | 13017 ft | 351 kts | 237° |
| 2026-05-08 02:54 | 33.65197 | -84.83803 | 13742 ft | 352 kts | 238° |
| 2026-05-08 02:54 | 33.63718 | -84.86136 | 14381 ft | 355 kts | 238° |
| 2026-05-08 02:54 | 33.62271 | -84.88438 | 15118 ft | 354 kts | 239° |
| 2026-05-08 02:54 | 33.60800 | -84.90794 | 15726 ft | 356 kts | 239° |
| 2026-05-08 02:55 | 33.59325 | -84.93159 | 16404 ft | 356 kts | 239° |
| 2026-05-08 02:55 | 33.56354 | -84.97932 | 17509 ft | 360 kts | 239° |
| 2026-05-08 02:55 | 33.54846 | -85.00355 | 18105 ft | 361 kts | 239° |
| 2026-05-08 02:56 | 33.53344 | -85.02769 | 18613 ft | 363 kts | 239° |
| 2026-05-08 02:56 | 33.51846 | -85.05174 | 19156 ft | 363 kts | 239° |
| 2026-05-08 02:56 | 33.50334 | -85.07604 | 19571 ft | 367 kts | 239° |
| 2026-05-08 02:56 | 33.48816 | -85.10038 | 20112 ft | 366 kts | 239° |
| 2026-05-08 02:57 | 33.47296 | -85.12475 | 20544 ft | 368 kts | 239° |
| 2026-05-08 02:57 | 33.45749 | -85.14954 | 20954 ft | 371 kts | 239° |
| 2026-05-08 02:57 | 33.44207 | -85.17424 | 21417 ft | 371 kts | 239° |
| 2026-05-08 02:57 | 33.42739 | -85.19895 | 21860 ft | 368 kts | 245° |
| 2026-05-08 02:58 | 33.41662 | -85.22645 | 22237 ft | 364 kts | 255° |
| 2026-05-08 02:58 | 33.40913 | -85.25546 | 22581 ft | 366 kts | 256° |
| 2026-05-08 02:58 | 33.40181 | -85.28424 | 23056 ft | 365 kts | 256° |
| 2026-05-08 02:58 | 33.39447 | -85.31341 | 23286 ft | 370 kts | 256° |
| 2026-05-08 02:59 | 33.38710 | -85.34284 | 23790 ft | 370 kts | 256° |
| 2026-05-08 02:59 | 33.37969 | -85.37258 | 24161 ft | 373 kts | 256° |
| 2026-05-08 02:59 | 33.37231 | -85.40223 | 24565 ft | 375 kts | 256° |
| 2026-05-08 02:59 | 33.36483 | -85.43227 | 24922 ft | 379 kts | 256° |
| 2026-05-08 03:00 | 33.35734 | -85.46240 | 25409 ft | 378 kts | 256° |
| 2026-05-08 03:00 | 33.34987 | -85.49241 | 25759 ft | 382 kts | 256° |
| 2026-05-08 03:00 | 33.34221 | -85.52309 | 26007 ft | 387 kts | 256° |
| 2026-05-08 03:00 | 33.33468 | -85.55340 | 26587 ft | 384 kts | 256° |
| 2026-05-08 03:01 | 33.32701 | -85.58411 | 26791 ft | 390 kts | 256° |
| 2026-05-08 03:01 | 33.31922 | -85.61533 | 27345 ft | 388 kts | 256° |
| 2026-05-08 03:01 | 33.31147 | -85.64632 | 27623 ft | 391 kts | 256° |
| 2026-05-08 03:01 | 33.30377 | -85.67709 | 27974 ft | 394 kts | 255° |
| 2026-05-08 03:02 | 33.29583 | -85.70875 | 28337 ft | 396 kts | 255° |
| 2026-05-08 03:02 | 33.28796 | -85.74010 | 28782 ft | 396 kts | 256° |
| 2026-05-08 03:02 | 33.28008 | -85.77145 | 29176 ft | 396 kts | 256° |
| 2026-05-08 03:02 | 33.27219 | -85.80282 | 29762 ft | 393 kts | 256° |
| 2026-05-08 03:03 | 33.26441 | -85.83369 | 30307 ft | 389 kts | 255° |
| 2026-05-08 03:03 | 33.25668 | -85.86442 | 30821 ft | 387 kts | 255° |
| 2026-05-08 03:03 | 33.24894 | -85.89507 | 31444 ft | 381 kts | 256° |
| 2026-05-08 03:03 | 33.24132 | -85.92526 | 31853 ft | 381 kts | 255° |
| 2026-05-08 03:04 | 33.23369 | -85.95545 | 32336 ft | 378 kts | 255° |
| 2026-05-08 03:04 | 33.22621 | -85.98497 | 32678 ft | 377 kts | 255° |
| 2026-05-08 03:04 | 33.21863 | -86.01487 | 33067 ft | 376 kts | 255° |
| 2026-05-08 03:04 | 33.21106 | -86.04469 | 33494 ft | 373 kts | 256° |
| 2026-05-08 03:05 | 33.20357 | -86.07419 | 33864 ft | 372 kts | 256° |
| 2026-05-08 03:05 | 33.19607 | -86.10364 | 34081 ft | 369 kts | 256° |
| 2026-05-08 03:05 | 33.18864 | -86.13287 | 34052 ft | 367 kts | 255° |
| 2026-05-08 03:06 | 33.17372 | -86.19144 | 34058 ft | 369 kts | 255° |
| 2026-05-08 03:06 | 33.15875 | -86.25003 | 34062 ft | 370 kts | 255° |
| 2026-05-08 03:07 | 33.14377 | -86.30849 | 34061 ft | 369 kts | 256° |
| 2026-05-08 03:07 | 33.12882 | -86.36674 | 34044 ft | 370 kts | 256° |
| 2026-05-08 03:08 | 33.11364 | -86.42577 | 34049 ft | 371 kts | 256° |
| 2026-05-08 03:08 | 33.09857 | -86.48422 | 34037 ft | 372 kts | 256° |
| 2026-05-08 03:09 | 33.07842 | -86.54094 | 34049 ft | 379 kts | 242° |
| 2026-05-08 03:09 | 33.04069 | -86.58621 | 34060 ft | 400 kts | 223° |
| 2026-05-08 03:10 | 32.99033 | -86.61776 | 34035 ft | 409 kts | 217° |
| 2026-05-08 03:10 | 32.93900 | -86.64788 | 34033 ft | 413 kts | 217° |
| 2026-05-08 03:11 | 32.88759 | -86.67782 | 34053 ft | 409 kts | 216° |
| 2026-05-08 03:11 | 32.83653 | -86.70752 | 34059 ft | 413 kts | 217° |